EGPN/DND METAR and TAF weather

Enter ICAO airport designator
Station Type Date Time Source
EGPN METAR 2020/09/19 14:50 UTC NOAA

EGPN 191450Z 10005KT 9999 FEW020 17/07 Q1026


Station Type Date Time Source
EGPN Decoded METAR 2020/09/19 14:50 UTC NOAA

Dundee / Riverside, United Kingdom (EGPN) 56-27N 003-01W
Sep 19, 2020 - 10:50 AM EDT / 2020.09.19 1450 UTC
Wind: from the E (100 degrees) at 6 MPH (5 KT):0
Visibility: greater than 7 mile(s):0
Sky conditions: mostly clear
Temperature: 62 F (17 C)
Dew Point: 44 F (7 C)
Relative Humidity: 51%
Pressure (altimeter): 30.30 in. Hg (1026 hPa)
ob: EGPN 191450Z 10005KT 9999 FEW020 17/07 Q1026
cycle: 15

Station Type Date Time Source
EGPN TAF 2019/01/15 18:56 UTC NOAA

TAF EGPN 151750Z 1518/1621 CNL

Example: see airport list